sensor_id;sensor_type;location;lat;lon;timestamp;temperature;humidity
34726;DHT22;20951;50.818;4.344;2023-03-01T00:00:38;3.50;99.90
34726;DHT22;20951;50.818;4.344;2023-03-01T00:03:04;3.40;99.90
34726;DHT22;20951;50.818;4.344;2023-03-01T00:05:30;3.30;99.90
34726;DHT22;20951;50.818;4.344;2023-03-01T00:07:56;3.30;99.90
34726;DHT22;20951;50.818;4.344;2023-03-01T00:10:22;3.30;99.90
34726;DHT22;20951;50.818;4.344;2023-03-01T00:12:48;3.40;99.90
34726;DHT22;20951;50.818;4.344;2023-03-01T00:15:14;3.40;99.90
34726;DHT22;20951;50.818;4.344;2023-03-01T00:17:40;3.50;99.90
34726;DHT22;20951;50.818;4.344;2023-03-01T00:20:06;3.30;99.90
34726;DHT22;20951;50.818;4.344;2023-03-01T00:22:36;3.30;99.90
34726;DHT22;20951;50.818;4.344;2023-03-01T00:25:03;3.30;99.90
34726;DHT22;20951;50.818;4.344;2023-03-01T00:27:29;3.30;99.90
34726;DHT22;20951;50.818;4.344;2023-03-01T00:29:55;3.20;99.90
34726;DHT22;20951;50.818;4.344;2023-03-01T00:32:21;3.20;99.90
34726;DHT22;20951;50.818;4.344;2023-03-01T00:34:47;3.30;99.90
34726;DHT22;20951;50.818;4.344;2023-03-01T00:37:23;3.30;99.90
34726;DHT22;20951;50.818;4.344;2023-03-01T00:39:49;3.20;99.90
34726;DHT22;20951;50.818;4.344;2023-03-01T00:42:16;3.10;99.90
34726;DHT22;20951;50.818;4.344;2023-03-01T00:44:42;3.10;99.90
34726;DHT22;20951;50.818;4.344;2023-03-01T00:47:08;3.10;99.90
34726;DHT22;20951;50.818;4.344;2023-03-01T00:49:35;3.20;99.90
34726;DHT22;20951;50.818;4.344;2023-03-01T00:52:01;3.20;99.90
34726;DHT22;20951;50.818;4.344;2023-03-01T00:54:27;3.10;99.90
34726;DHT22;20951;50.818;4.344;2023-03-01T00:56:53;3.10;99.90
34726;DHT22;20951;50.818;4.344;2023-03-01T00:59:19;3.10;99.90
34726;DHT22;20951;50.818;4.344;2023-03-01T01:01:45;3.10;99.90
34726;DHT22;20951;50.818;4.344;2023-03-01T01:04:12;3.00;99.90
34726;DHT22;20951;50.818;4.344;2023-03-01T01:06:41;3.10;99.90
34726;DHT22;20951;50.818;4.344;2023-03-01T01:09:09;3.10;99.90
34726;DHT22;20951;50.818;4.344;2023-03-01T01:11:49;3.00;99.90
34726;DHT22;20951;50.818;4.344;2023-03-01T01:14:17;3.00;99.90
34726;DHT22;20951;50.818;4.344;2023-03-01T01:16:43;2.90;99.90
34726;DHT22;20951;50.818;4.344;2023-03-01T01:19:10;2.80;99.90
34726;DHT22;20951;50.818;4.344;2023-03-01T01:21:36;2.80;99.90
34726;DHT22;20951;50.818;4.344;2023-03-01T01:24:04;2.80;99.90
34726;DHT22;20951;50.818;4.344;2023-03-01T01:26:32;2.90;99.90
34726;DHT22;20951;50.818;4.344;2023-03-01T01:28:58;2.90;99.90
34726;DHT22;20951;50.818;4.344;2023-03-01T01:31:25;2.80;99.90
34726;DHT22;20951;50.818;4.344;2023-03-01T01:33:52;2.70;99.90
34726;DHT22;20951;50.818;4.344;2023-03-01T01:36:19;2.80;99.90
34726;DHT22;20951;50.818;4.344;2023-03-01T01:38:45;2.70;99.90
34726;DHT22;20951;50.818;4.344;2023-03-01T01:41:12;2.70;99.90
34726;DHT22;20951;50.818;4.344;2023-03-01T01:43:41;2.60;99.90
34726;DHT22;20951;50.818;4.344;2023-03-01T01:48:51;2.70;99.90
34726;DHT22;20951;50.818;4.344;2023-03-01T01:51:20;2.70;99.90
34726;DHT22;20951;50.818;4.344;2023-03-01T01:53:53;2.60;99.90
34726;DHT22;20951;50.818;4.344;2023-03-01T01:56:20;2.70;99.90
34726;DHT22;20951;50.818;4.344;2023-03-01T01:58:48;2.70;99.90
34726;DHT22;20951;50.818;4.344;2023-03-01T02:01:15;2.70;99.90
34726;DHT22;20951;50.818;4.344;2023-03-01T02:03:43;2.70;99.90
34726;DHT22;20951;50.818;4.344;2023-03-01T02:06:16;2.60;99.90
34726;DHT22;20951;50.818;4.344;2023-03-01T02:08:46;2.60;99.90
34726;DHT22;20951;50.818;4.344;2023-03-01T02:11:13;2.60;99.90
34726;DHT22;20951;50.818;4.344;2023-03-01T02:13:40;2.60;99.90
34726;DHT22;20951;50.818;4.344;2023-03-01T02:16:12;2.50;99.90
34726;DHT22;20951;50.818;4.344;2023-03-01T02:18:40;2.40;99.90
34726;DHT22;20951;50.818;4.344;2023-03-01T02:26:50;2.40;99.90
34726;DHT22;20951;50.818;4.344;2023-03-01T02:29:17;2.50;99.90
34726;DHT22;20951;50.818;4.344;2023-03-01T02:31:43;2.50;99.90
34726;DHT22;20951;50.818;4.344;2023-03-01T02:34:21;2.50;99.90
34726;DHT22;20951;50.818;4.344;2023-03-01T02:36:54;2.40;99.90
34726;DHT22;20951;50.818;4.344;2023-03-01T02:39:26;2.40;99.90
34726;DHT22;20951;50.818;4.344;2023-03-01T02:41:55;2.40;99.90
34726;DHT22;20951;50.818;4.344;2023-03-01T02:44:22;2.40;99.90
34726;DHT22;20951;50.818;4.344;2023-03-01T02:46:51;2.40;99.90
34726;DHT22;20951;50.818;4.344;2023-03-01T02:56:56;2.40;99.90
34726;DHT22;20951;50.818;4.344;2023-03-01T02:59:25;2.30;99.90
34726;DHT22;20951;50.818;4.344;2023-03-01T03:01:52;2.40;99.90
34726;DHT22;20951;50.818;4.344;2023-03-01T03:04:19;2.40;99.90
34726;DHT22;20951;50.818;4.344;2023-03-01T03:06:50;2.40;99.90
34726;DHT22;20951;50.818;4.344;2023-03-01T03:09:17;2.30;99.90
34726;DHT22;20951;50.818;4.344;2023-03-01T03:11:43;2.30;99.90
34726;DHT22;20951;50.818;4.344;2023-03-01T03:14:14;2.40;99.90
34726;DHT22;20951;50.818;4.344;2023-03-01T03:16:46;2.20;99.90
34726;DHT22;20951;50.818;4.344;2023-03-01T03:19:12;2.10;99.90
34726;DHT22;20951;50.818;4.344;2023-03-01T03:21:38;2.10;99.90
34726;DHT22;20951;50.818;4.344;2023-03-01T03:24:05;2.00;99.90
34726;DHT22;20951;50.818;4.344;2023-03-01T03:26:31;2.00;99.90
34726;DHT22;20951;50.818;4.344;2023-03-01T03:28:57;2.00;99.90
34726;DHT22;20951;50.818;4.344;2023-03-01T03:31:23;2.00;99.90
34726;DHT22;20951;50.818;4.344;2023-03-01T03:33:50;2.00;99.90
34726;DHT22;20951;50.818;4.344;2023-03-01T03:36:17;2.00;99.90
34726;DHT22;20951;50.818;4.344;2023-03-01T03:38:44;2.00;99.90
34726;DHT22;20951;50.818;4.344;2023-03-01T03:41:14;2.00;99.90
34726;DHT22;20951;50.818;4.344;2023-03-01T03:43:41;2.00;99.90
34726;DHT22;20951;50.818;4.344;2023-03-01T03:46:10;2.00;99.90
34726;DHT22;20951;50.818;4.344;2023-03-01T03:48:40;1.90;99.90
34726;DHT22;20951;50.818;4.344;2023-03-01T03:51:06;1.90;99.90
34726;DHT22;20951;50.818;4.344;2023-03-01T03:53:34;1.90;99.90
34726;DHT22;20951;50.818;4.344;2023-03-01T03:56:00;1.90;99.90
34726;DHT22;20951;50.818;4.344;2023-03-01T03:58:26;1.80;99.90
34726;DHT22;20951;50.818;4.344;2023-03-01T04:00:54;1.80;99.90
34726;DHT22;20951;50.818;4.344;2023-03-01T04:03:25;1.80;99.90
34726;DHT22;20951;50.818;4.344;2023-03-01T04:05:52;1.80;99.90
34726;DHT22;20951;50.818;4.344;2023-03-01T04:08:20;1.80;99.90
34726;DHT22;20951;50.818;4.344;2023-03-01T04:10:49;1.80;99.90
34726;DHT22;20951;50.818;4.344;2023-03-01T04:13:18;1.80;99.90
34726;DHT22;20951;50.818;4.344;2023-03-01T04:15:46;1.80;99.90
34726;DHT22;20951;50.818;4.344;2023-03-01T04:18:13;1.80;99.90
34726;DHT22;20951;50.818;4.344;2023-03-01T04:20:43;1.70;99.90
34726;DHT22;20951;50.818;4.344;2023-03-01T04:23:13;1.60;99.90
34726;DHT22;20951;50.818;4.344;2023-03-01T04:25:55;1.50;99.90
34726;DHT22;20951;50.818;4.344;2023-03-01T04:28:34;1.60;99.90
34726;DHT22;20951;50.818;4.344;2023-03-01T04:31:06;1.40;99.90
34726;DHT22;20951;50.818;4.344;2023-03-01T04:33:46;1.40;99.90
34726;DHT22;20951;50.818;4.344;2023-03-01T04:36:14;1.40;99.90
34726;DHT22;20951;50.818;4.344;2023-03-01T04:38:41;1.40;99.90
34726;DHT22;20951;50.818;4.344;2023-03-01T04:41:09;1.40;99.90
34726;DHT22;20951;50.818;4.344;2023-03-01T04:43:36;1.40;99.90
34726;DHT22;20951;50.818;4.344;2023-03-01T04:46:04;1.30;99.90
34726;DHT22;20951;50.818;4.344;2023-03-01T04:48:32;1.30;99.90
34726;DHT22;20951;50.818;4.344;2023-03-01T04:50:59;1.30;99.90
34726;DHT22;20951;50.818;4.344;2023-03-01T04:53:26;1.30;99.90
34726;DHT22;20951;50.818;4.344;2023-03-01T04:55:54;1.30;99.90
34726;DHT22;20951;50.818;4.344;2023-03-01T04:58:20;1.30;99.90
34726;DHT22;20951;50.818;4.344;2023-03-01T05:00:46;1.30;99.90
34726;DHT22;20951;50.818;4.344;2023-03-01T05:03:12;1.30;99.90
34726;DHT22;20951;50.818;4.344;2023-03-01T05:05:44;1.30;99.90
34726;DHT22;20951;50.818;4.344;2023-03-01T05:08:11;1.30;99.90
34726;DHT22;20951;50.818;4.344;2023-03-01T05:10:45;1.30;99.90
34726;DHT22;20951;50.818;4.344;2023-03-01T05:13:12;1.30;99.90
34726;DHT22;20951;50.818;4.344;2023-03-01T05:15:48;1.30;99.90
34726;DHT22;20951;50.818;4.344;2023-03-01T05:18:14;1.20;99.90
34726;DHT22;20951;50.818;4.344;2023-03-01T05:20:40;1.20;99.90
34726;DHT22;20951;50.818;4.344;2023-03-01T05:23:07;1.20;99.90
34726;DHT22;20951;50.818;4.344;2023-03-01T05:25:37;1.20;99.90
34726;DHT22;20951;50.818;4.344;2023-03-01T05:28:07;1.20;99.90
34726;DHT22;20951;50.818;4.344;2023-03-01T05:30:36;1.20;99.90
34726;DHT22;20951;50.818;4.344;2023-03-01T05:33:04;1.20;99.90
34726;DHT22;20951;50.818;4.344;2023-03-01T05:35:32;1.20;99.90
34726;DHT22;20951;50.818;4.344;2023-03-01T05:37:59;1.10;99.90
34726;DHT22;20951;50.818;4.344;2023-03-01T05:40:25;1.20;99.90
34726;DHT22;20951;50.818;4.344;2023-03-01T05:42:53;1.20;99.90
34726;DHT22;20951;50.818;4.344;2023-03-01T05:45:20;1.10;99.90
34726;DHT22;20951;50.818;4.344;2023-03-01T05:47:48;1.00;99.90
34726;DHT22;20951;50.818;4.344;2023-03-01T05:50:16;1.10;99.90
34726;DHT22;20951;50.818;4.344;2023-03-01T05:52:57;1.10;99.90
34726;DHT22;20951;50.818;4.344;2023-03-01T05:55:24;1.20;99.90
34726;DHT22;20951;50.818;4.344;2023-03-01T05:57:50;1.20;99.90
34726;DHT22;20951;50.818;4.344;2023-03-01T06:00:18;1.10;99.90
34726;DHT22;20951;50.818;4.344;2023-03-01T06:02:45;1.00;99.90
34726;DHT22;20951;50.818;4.344;2023-03-01T06:05:14;1.20;99.90
34726;DHT22;20951;50.818;4.344;2023-03-01T06:07:41;1.10;99.90
34726;DHT22;20951;50.818;4.344;2023-03-01T06:10:07;1.10;99.90
34726;DHT22;20951;50.818;4.344;2023-03-01T06:12:36;1.00;99.90
34726;DHT22;20951;50.818;4.344;2023-03-01T06:15:02;1.00;99.90
34726;DHT22;20951;50.818;4.344;2023-03-01T06:17:31;0.90;99.90
34726;DHT22;20951;50.818;4.344;2023-03-01T06:19:59;1.00;99.90
34726;DHT22;20951;50.818;4.344;2023-03-01T06:22:29;0.90;99.90
34726;DHT22;20951;50.818;4.344;2023-03-01T06:24:58;1.00;99.90
34726;DHT22;20951;50.818;4.344;2023-03-01T06:27:29;1.00;99.90
34726;DHT22;20951;50.818;4.344;2023-03-01T06:29:58;0.90;99.90
34726;DHT22;20951;50.818;4.344;2023-03-01T06:32:28;0.90;99.90
34726;DHT22;20951;50.818;4.344;2023-03-01T06:34:58;0.90;99.90
34726;DHT22;20951;50.818;4.344;2023-03-01T06:37:28;0.90;99.90
34726;DHT22;20951;50.818;4.344;2023-03-01T06:39:57;0.90;99.90
34726;DHT22;20951;50.818;4.344;2023-03-01T06:42:31;0.90;99.90
34726;DHT22;20951;50.818;4.344;2023-03-01T06:45:01;0.90;99.90
34726;DHT22;20951;50.818;4.344;2023-03-01T06:47:30;0.90;99.90
34726;DHT22;20951;50.818;4.344;2023-03-01T06:50:01;1.00;99.90
34726;DHT22;20951;50.818;4.344;2023-03-01T06:52:30;0.90;99.90
34726;DHT22;20951;50.818;4.344;2023-03-01T06:54:59;0.90;99.90
34726;DHT22;20951;50.818;4.344;2023-03-01T06:57:29;1.00;99.90
34726;DHT22;20951;50.818;4.344;2023-03-01T06:59:58;0.90;99.90
34726;DHT22;20951;50.818;4.344;2023-03-01T07:02:27;0.90;99.90
34726;DHT22;20951;50.818;4.344;2023-03-01T07:04:56;1.00;99.90
34726;DHT22;20951;50.818;4.344;2023-03-01T07:07:25;1.00;99.90
34726;DHT22;20951;50.818;4.344;2023-03-01T07:09:54;1.00;99.90
34726;DHT22;20951;50.818;4.344;2023-03-01T07:12:23;1.10;99.90
34726;DHT22;20951;50.818;4.344;2023-03-01T07:14:53;1.10;99.90
34726;DHT22;20951;50.818;4.344;2023-03-01T07:17:23;1.10;99.90
34726;DHT22;20951;50.818;4.344;2023-03-01T07:19:52;1.10;99.90
34726;DHT22;20951;50.818;4.344;2023-03-01T07:22:22;1.20;99.90
34726;DHT22;20951;50.818;4.344;2023-03-01T07:24:52;1.20;99.90
34726;DHT22;20951;50.818;4.344;2023-03-01T07:27:20;1.20;99.90
34726;DHT22;20951;50.818;4.344;2023-03-01T07:29:49;1.30;99.90
34726;DHT22;20951;50.818;4.344;2023-03-01T07:32:19;1.30;99.90
34726;DHT22;20951;50.818;4.344;2023-03-01T07:34:48;1.40;99.90
34726;DHT22;20951;50.818;4.344;2023-03-01T07:37:19;1.30;99.90
34726;DHT22;20951;50.818;4.344;2023-03-01T07:39:48;1.30;99.90
34726;DHT22;20951;50.818;4.344;2023-03-01T07:42:16;1.20;99.90
34726;DHT22;20951;50.818;4.344;2023-03-01T07:44:45;1.20;99.90
34726;DHT22;20951;50.818;4.344;2023-03-01T07:47:15;1.20;99.90
34726;DHT22;20951;50.818;4.344;2023-03-01T07:49:46;1.30;99.90
34726;DHT22;20951;50.818;4.344;2023-03-01T07:52:15;1.30;99.90
34726;DHT22;20951;50.818;4.344;2023-03-01T07:54:45;1.30;99.90
34726;DHT22;20951;50.818;4.344;2023-03-01T07:57:16;1.30;99.90
34726;DHT22;20951;50.818;4.344;2023-03-01T07:59:45;1.50;99.90
34726;DHT22;20951;50.818;4.344;2023-03-01T08:02:14;1.60;99.90
34726;DHT22;20951;50.818;4.344;2023-03-01T08:04:44;1.60;99.90
34726;DHT22;20951;50.818;4.344;2023-03-01T08:07:13;1.60;99.90
34726;DHT22;20951;50.818;4.344;2023-03-01T08:09:43;1.70;99.90
34726;DHT22;20951;50.818;4.344;2023-03-01T08:12:11;1.70;99.90
34726;DHT22;20951;50.818;4.344;2023-03-01T08:14:40;1.80;99.90
34726;DHT22;20951;50.818;4.344;2023-03-01T08:17:10;1.90;99.90
34726;DHT22;20951;50.818;4.344;2023-03-01T08:19:40;1.80;99.90
34726;DHT22;20951;50.818;4.344;2023-03-01T08:22:08;1.80;99.90
34726;DHT22;20951;50.818;4.344;2023-03-01T08:24:37;1.80;99.90
34726;DHT22;20951;50.818;4.344;2023-03-01T08:27:07;1.80;99.90
34726;DHT22;20951;50.818;4.344;2023-03-01T08:29:36;1.80;99.90
34726;DHT22;20951;50.818;4.344;2023-03-01T08:32:04;1.90;99.90
34726;DHT22;20951;50.818;4.344;2023-03-01T08:34:33;1.80;99.90
34726;DHT22;20951;50.818;4.344;2023-03-01T08:37:02;2.00;99.90
34726;DHT22;20951;50.818;4.344;2023-03-01T08:39:31;2.00;99.90
34726;DHT22;20951;50.818;4.344;2023-03-01T08:42:00;2.10;99.90
34726;DHT22;20951;50.818;4.344;2023-03-01T08:44:30;2.00;99.90
34726;DHT22;20951;50.818;4.344;2023-03-01T08:47:02;2.20;99.90
34726;DHT22;20951;50.818;4.344;2023-03-01T08:49:31;2.20;99.90
34726;DHT22;20951;50.818;4.344;2023-03-01T08:52:01;2.30;99.90
34726;DHT22;20951;50.818;4.344;2023-03-01T08:54:30;2.40;99.90
34726;DHT22;20951;50.818;4.344;2023-03-01T08:57:01;2.40;99.90
34726;DHT22;20951;50.818;4.344;2023-03-01T08:59:29;2.40;99.90
34726;DHT22;20951;50.818;4.344;2023-03-01T09:02:08;2.50;99.90
34726;DHT22;20951;50.818;4.344;2023-03-01T09:04:39;2.60;99.90
34726;DHT22;20951;50.818;4.344;2023-03-01T09:07:10;2.60;99.90
34726;DHT22;20951;50.818;4.344;2023-03-01T09:09:39;2.60;99.90
34726;DHT22;20951;50.818;4.344;2023-03-01T09:12:09;2.70;99.90
34726;DHT22;20951;50.818;4.344;2023-03-01T09:14:38;2.90;99.90
34726;DHT22;20951;50.818;4.344;2023-03-01T09:17:11;2.90;99.90
34726;DHT22;20951;50.818;4.344;2023-03-01T09:19:40;3.00;99.90
34726;DHT22;20951;50.818;4.344;2023-03-01T09:22:09;3.20;99.90
34726;DHT22;20951;50.818;4.344;2023-03-01T09:24:38;3.20;99.90
34726;DHT22;20951;50.818;4.344;2023-03-01T09:27:07;3.20;99.90
34726;DHT22;20951;50.818;4.344;2023-03-01T09:29:38;3.10;99.90
34726;DHT22;20951;50.818;4.344;2023-03-01T09:32:08;3.20;99.90
34726;DHT22;20951;50.818;4.344;2023-03-01T09:34:37;3.20;99.90
34726;DHT22;20951;50.818;4.344;2023-03-01T09:37:26;3.20;99.90
34726;DHT22;20951;50.818;4.344;2023-03-01T09:39:55;3.40;99.90
34726;DHT22;20951;50.818;4.344;2023-03-01T09:42:24;3.50;99.90
34726;DHT22;20951;50.818;4.344;2023-03-01T09:44:57;3.60;99.90
34726;DHT22;20951;50.818;4.344;2023-03-01T09:47:30;3.70;99.90
34726;DHT22;20951;50.818;4.344;2023-03-01T09:50:08;3.80;99.90
34726;DHT22;20951;50.818;4.344;2023-03-01T09:53:01;3.90;99.90
34726;DHT22;20951;50.818;4.344;2023-03-01T10:01:49;3.80;99.90
34726;DHT22;20951;50.818;4.344;2023-03-01T10:04:10;4.10;99.90
34726;DHT22;20951;50.818;4.344;2023-03-01T10:06:45;4.30;99.90
34726;DHT22;20951;50.818;4.344;2023-03-01T10:09:18;4.50;99.90
34726;DHT22;20951;50.818;4.344;2023-03-01T10:11:54;4.60;99.90
34726;DHT22;20951;50.818;4.344;2023-03-01T10:15:11;4.90;99.90
34726;DHT22;20951;50.818;4.344;2023-03-01T10:17:52;5.20;99.90
34726;DHT22;20951;50.818;4.344;2023-03-01T10:23:10;6.20;99.90
34726;DHT22;20951;50.818;4.344;2023-03-01T10:28:45;7.70;99.90
34726;DHT22;20951;50.818;4.344;2023-03-01T10:31:24;8.10;99.90
34726;DHT22;20951;50.818;4.344;2023-03-01T10:33:56;8.40;99.90
34726;DHT22;20951;50.818;4.344;2023-03-01T10:36:28;9.00;99.90
34726;DHT22;20951;50.818;4.344;2023-03-01T10:39:05;9.60;99.90
34726;DHT22;20951;50.818;4.344;2023-03-01T10:44:40;11.40;96.80
34726;DHT22;20951;50.818;4.344;2023-03-01T10:47:18;12.60;94.40
34726;DHT22;20951;50.818;4.344;2023-03-01T10:49:55;12.60;93.80
34726;DHT22;20951;50.818;4.344;2023-03-01T10:52:28;12.60;92.60
34726;DHT22;20951;50.818;4.344;2023-03-01T10:55:23;12.70;92.40
34726;DHT22;20951;50.818;4.344;2023-03-01T10:57:48;13.10;92.20
34726;DHT22;20951;50.818;4.344;2023-03-01T11:00:26;12.80;90.90
34726;DHT22;20951;50.818;4.344;2023-03-01T11:03:11;12.40;91.10
34726;DHT22;20951;50.818;4.344;2023-03-01T11:06:04;12.70;91.50
34726;DHT22;20951;50.818;4.344;2023-03-01T11:08:40;13.30;91.30
34726;DHT22;20951;50.818;4.344;2023-03-01T11:11:32;14.50;89.30
34726;DHT22;20951;50.818;4.344;2023-03-01T11:14:21;13.90;87.90
34726;DHT22;20951;50.818;4.344;2023-03-01T11:17:01;13.80;87.00
34726;DHT22;20951;50.818;4.344;2023-03-01T11:19:31;13.80;86.30
34726;DHT22;20951;50.818;4.344;2023-03-01T11:22:26;13.70;85.80
34726;DHT22;20951;50.818;4.344;2023-03-01T11:24:55;13.30;86.40
34726;DHT22;20951;50.818;4.344;2023-03-01T11:27:33;13.50;85.90
34726;DHT22;20951;50.818;4.344;2023-03-01T11:35:47;14.00;84.10
34726;DHT22;20951;50.818;4.344;2023-03-01T11:44:20;14.90;81.40
34726;DHT22;20951;50.818;4.344;2023-03-01T11:55:17;14.20;81.60
34726;DHT22;20951;50.818;4.344;2023-03-01T11:58:39;14.00;81.40
34726;DHT22;20951;50.818;4.344;2023-03-01T12:01:23;14.10;80.90
34726;DHT22;20951;50.818;4.344;2023-03-01T12:06:55;14.20;82.10
34726;DHT22;20951;50.818;4.344;2023-03-01T12:12:29;14.00;80.00
34726;DHT22;20951;50.818;4.344;2023-03-01T12:26:20;13.80;80.30
34726;DHT22;20951;50.818;4.344;2023-03-01T12:29:16;14.30;80.20
34726;DHT22;20951;50.818;4.344;2023-03-01T12:32:12;14.60;78.40
34726;DHT22;20951;50.818;4.344;2023-03-01T12:34:54;15.30;78.20
34726;DHT22;20951;50.818;4.344;2023-03-01T12:37:31;16.00;76.80
34726;DHT22;20951;50.818;4.344;2023-03-01T12:48:22;16.40;75.20
34726;DHT22;20951;50.818;4.344;2023-03-01T12:50:57;16.10;74.20
34726;DHT22;20951;50.818;4.344;2023-03-01T12:53:44;16.00;73.90
34726;DHT22;20951;50.818;4.344;2023-03-01T12:56:27;17.00;73.80
34726;DHT22;20951;50.818;4.344;2023-03-01T12:59:18;17.50;71.20
34726;DHT22;20951;50.818;4.344;2023-03-01T13:07:16;17.30;71.40
34726;DHT22;20951;50.818;4.344;2023-03-01T13:15:28;16.90;70.80
34726;DHT22;20951;50.818;4.344;2023-03-01T13:18:03;16.60;71.40
34726;DHT22;20951;50.818;4.344;2023-03-01T13:20:46;16.40;71.90
34726;DHT22;20951;50.818;4.344;2023-03-01T13:29:00;16.80;70.80
34726;DHT22;20951;50.818;4.344;2023-03-01T13:34:03;17.30;70.30
34726;DHT22;20951;50.818;4.344;2023-03-01T13:39:33;17.90;68.70
34726;DHT22;20951;50.818;4.344;2023-03-01T13:42:44;18.00;68.40
34726;DHT22;20951;50.818;4.344;2023-03-01T13:45:23;18.20;68.00
34726;DHT22;20951;50.818;4.344;2023-03-01T13:48:24;17.70;68.00
34726;DHT22;20951;50.818;4.344;2023-03-01T13:51:05;17.70;67.80
34726;DHT22;20951;50.818;4.344;2023-03-01T13:53:40;18.20;67.00
34726;DHT22;20951;50.818;4.344;2023-03-01T13:59:16;17.50;67.90
34726;DHT22;20951;50.818;4.344;2023-03-01T14:01:51;16.90;68.80
34726;DHT22;20951;50.818;4.344;2023-03-01T14:04:30;16.90;68.50
34726;DHT22;20951;50.818;4.344;2023-03-01T14:07:20;17.10;68.50
34726;DHT22;20951;50.818;4.344;2023-03-01T14:09:55;16.80;68.40
34726;DHT22;20951;50.818;4.344;2023-03-01T14:12:48;17.20;68.20
34726;DHT22;20951;50.818;4.344;2023-03-01T14:15:44;17.30;68.20
34726;DHT22;20951;50.818;4.344;2023-03-01T14:18:26;16.70;68.50
34726;DHT22;20951;50.818;4.344;2023-03-01T14:20:58;16.40;68.80
34726;DHT22;20951;50.818;4.344;2023-03-01T14:23:27;15.50;69.30
34726;DHT22;20951;50.818;4.344;2023-03-01T14:25:57;14.40;71.20
34726;DHT22;20951;50.818;4.344;2023-03-01T14:28:29;13.70;74.00
34726;DHT22;20951;50.818;4.344;2023-03-01T14:30:59;13.10;74.70
34726;DHT22;20951;50.818;4.344;2023-03-01T14:36:14;12.60;76.10
34726;DHT22;20951;50.818;4.344;2023-03-01T14:38:45;13.00;76.00
34726;DHT22;20951;50.818;4.344;2023-03-01T14:41:19;13.30;75.50
34726;DHT22;20951;50.818;4.344;2023-03-01T14:43:58;13.70;75.20
34726;DHT22;20951;50.818;4.344;2023-03-01T14:49:12;14.70;73.70
34726;DHT22;20951;50.818;4.344;2023-03-01T14:51:46;15.10;73.20
34726;DHT22;20951;50.818;4.344;2023-03-01T14:54:24;15.10;71.90
34726;DHT22;20951;50.818;4.344;2023-03-01T14:56:57;14.10;72.20
34726;DHT22;20951;50.818;4.344;2023-03-01T14:59:26;12.90;74.80
34726;DHT22;20951;50.818;4.344;2023-03-01T15:01:57;12.00;76.80
34726;DHT22;20951;50.818;4.344;2023-03-01T15:04:28;11.50;78.90
34726;DHT22;20951;50.818;4.344;2023-03-01T15:06:58;11.30;79.30
34726;DHT22;20951;50.818;4.344;2023-03-01T15:09:32;11.60;80.10
34726;DHT22;20951;50.818;4.344;2023-03-01T15:12:23;11.80;79.40
34726;DHT22;20951;50.818;4.344;2023-03-01T15:14:51;12.30;78.60
34726;DHT22;20951;50.818;4.344;2023-03-01T15:17:39;12.80;77.70
34726;DHT22;20951;50.818;4.344;2023-03-01T15:20:17;13.30;77.40
34726;DHT22;20951;50.818;4.344;2023-03-01T15:22:49;13.30;76.10
34726;DHT22;20951;50.818;4.344;2023-03-01T15:25:27;13.20;76.20
34726;DHT22;20951;50.818;4.344;2023-03-01T15:27:58;13.30;76.20
34726;DHT22;20951;50.818;4.344;2023-03-01T15:30:34;13.00;77.00
34726;DHT22;20951;50.818;4.344;2023-03-01T15:33:36;12.80;77.00
34726;DHT22;20951;50.818;4.344;2023-03-01T15:36:31;12.90;77.60
34726;DHT22;20951;50.818;4.344;2023-03-01T15:39:00;13.10;77.60
34726;DHT22;20951;50.818;4.344;2023-03-01T15:41:52;13.20;77.50
34726;DHT22;20951;50.818;4.344;2023-03-01T15:47:26;13.10;77.50
34726;DHT22;20951;50.818;4.344;2023-03-01T15:49:57;13.00;77.90
34726;DHT22;20951;50.818;4.344;2023-03-01T15:52:40;13.00;77.80
34726;DHT22;20951;50.818;4.344;2023-03-01T15:57:42;12.30;78.40
34726;DHT22;20951;50.818;4.344;2023-03-01T16:00:12;12.00;79.10
34726;DHT22;20951;50.818;4.344;2023-03-01T16:02:40;11.30;79.80
34726;DHT22;20951;50.818;4.344;2023-03-01T16:05:28;10.90;81.40
34726;DHT22;20951;50.818;4.344;2023-03-01T16:07:53;10.60;82.40
34726;DHT22;20951;50.818;4.344;2023-03-01T16:10:20;10.30;83.00
34726;DHT22;20951;50.818;4.344;2023-03-01T16:12:46;9.90;83.70
34726;DHT22;20951;50.818;4.344;2023-03-01T16:15:19;9.60;85.10
34726;DHT22;20951;50.818;4.344;2023-03-01T16:17:45;9.40;85.80
34726;DHT22;20951;50.818;4.344;2023-03-01T16:20:12;9.20;86.80
34726;DHT22;20951;50.818;4.344;2023-03-01T16:22:42;9.10;87.50
34726;DHT22;20951;50.818;4.344;2023-03-01T16:25:13;9.00;87.70
34726;DHT22;20951;50.818;4.344;2023-03-01T16:27:43;8.90;88.10
34726;DHT22;20951;50.818;4.344;2023-03-01T16:30:10;8.80;88.30
34726;DHT22;20951;50.818;4.344;2023-03-01T16:32:43;8.80;87.40
34726;DHT22;20951;50.818;4.344;2023-03-01T16:35:12;8.50;87.60
34726;DHT22;20951;50.818;4.344;2023-03-01T16:37:39;8.50;88.50
34726;DHT22;20951;50.818;4.344;2023-03-01T16:42:43;8.40;90.20
34726;DHT22;20951;50.818;4.344;2023-03-01T16:45:10;8.30;90.90
34726;DHT22;20951;50.818;4.344;2023-03-01T16:47:36;8.30;91.50
34726;DHT22;20951;50.818;4.344;2023-03-01T16:50:02;8.30;91.60
34726;DHT22;20951;50.818;4.344;2023-03-01T16:52:28;8.30;91.50
34726;DHT22;20951;50.818;4.344;2023-03-01T16:54:54;8.30;91.30
34726;DHT22;20951;50.818;4.344;2023-03-01T16:57:20;8.20;91.30
34726;DHT22;20951;50.818;4.344;2023-03-01T16:59:47;8.20;91.30
34726;DHT22;20951;50.818;4.344;2023-03-01T17:02:13;8.10;91.70
34726;DHT22;20951;50.818;4.344;2023-03-01T17:04:40;8.10;92.30
34726;DHT22;20951;50.818;4.344;2023-03-01T17:07:06;8.10;92.30
34726;DHT22;20951;50.818;4.344;2023-03-01T17:09:36;8.00;92.50
34726;DHT22;20951;50.818;4.344;2023-03-01T17:12:04;7.90;92.80
34726;DHT22;20951;50.818;4.344;2023-03-01T17:14:30;7.90;93.20
34726;DHT22;20951;50.818;4.344;2023-03-01T17:16:56;7.80;93.30
34726;DHT22;20951;50.818;4.344;2023-03-01T17:19:22;7.70;93.50
34726;DHT22;20951;50.818;4.344;2023-03-01T17:21:48;7.70;93.80
34726;DHT22;20951;50.818;4.344;2023-03-01T17:24:14;7.60;94.00
34726;DHT22;20951;50.818;4.344;2023-03-01T17:26:40;7.60;94.40
34726;DHT22;20951;50.818;4.344;2023-03-01T17:29:06;7.60;94.70
34726;DHT22;20951;50.818;4.344;2023-03-01T17:31:33;7.60;94.80
34726;DHT22;20951;50.818;4.344;2023-03-01T17:33:59;7.60;95.10
34726;DHT22;20951;50.818;4.344;2023-03-01T17:36:25;7.50;95.40
34726;DHT22;20951;50.818;4.344;2023-03-01T17:38:51;7.60;95.70
34726;DHT22;20951;50.818;4.344;2023-03-01T17:41:18;7.50;95.80
34726;DHT22;20951;50.818;4.344;2023-03-01T17:43:45;7.50;96.00
34726;DHT22;20951;50.818;4.344;2023-03-01T17:46:11;7.30;95.90
34726;DHT22;20951;50.818;4.344;2023-03-01T17:48:37;7.40;96.00
34726;DHT22;20951;50.818;4.344;2023-03-01T17:51:08;7.30;96.30
34726;DHT22;20951;50.818;4.344;2023-03-01T17:53:34;7.20;96.50
34726;DHT22;20951;50.818;4.344;2023-03-01T17:56:03;7.10;96.70
34726;DHT22;20951;50.818;4.344;2023-03-01T17:58:29;7.10;96.80
34726;DHT22;20951;50.818;4.344;2023-03-01T18:00:55;7.10;97.20
34726;DHT22;20951;50.818;4.344;2023-03-01T18:03:21;7.00;97.20